sensor_id;sensor_type;location;lat;lon;timestamp;temperature;humidity
18577;DHT22;9418;52.694;13.294;2023-04-24T00:01:20;10.50;45.20
18577;DHT22;9418;52.694;13.294;2023-04-24T00:03:46;10.60;44.70
18577;DHT22;9418;52.694;13.294;2023-04-24T00:06:13;10.60;46.00
18577;DHT22;9418;52.694;13.294;2023-04-24T00:08:42;10.70;46.90
18577;DHT22;9418;52.694;13.294;2023-04-24T00:11:10;10.70;47.50
18577;DHT22;9418;52.694;13.294;2023-04-24T00:13:37;10.70;48.10
18577;DHT22;9418;52.694;13.294;2023-04-24T00:16:04;10.80;48.50
18577;DHT22;9418;52.694;13.294;2023-04-24T00:18:31;10.80;49.00
18577;DHT22;9418;52.694;13.294;2023-04-24T00:20:57;10.80;48.10
18577;DHT22;9418;52.694;13.294;2023-04-24T00:23:24;10.80;47.60
18577;DHT22;9418;52.694;13.294;2023-04-24T00:25:50;10.80;49.40
18577;DHT22;9418;52.694;13.294;2023-04-24T00:28:18;10.80;48.10
18577;DHT22;9418;52.694;13.294;2023-04-24T00:30:45;10.80;47.10
18577;DHT22;9418;52.694;13.294;2023-04-24T00:33:11;10.90;46.60
18577;DHT22;9418;52.694;13.294;2023-04-24T00:35:38;10.90;45.70
18577;DHT22;9418;52.694;13.294;2023-04-24T00:38:05;10.90;46.60
18577;DHT22;9418;52.694;13.294;2023-04-24T00:40:32;10.90;46.40
18577;DHT22;9418;52.694;13.294;2023-04-24T00:42:58;10.90;46.10
18577;DHT22;9418;52.694;13.294;2023-04-24T00:45:26;11.00;47.30
18577;DHT22;9418;52.694;13.294;2023-04-24T00:47:53;11.10;48.30
18577;DHT22;9418;52.694;13.294;2023-04-24T00:50:21;11.10;47.40
18577;DHT22;9418;52.694;13.294;2023-04-24T00:52:47;11.10;47.40
18577;DHT22;9418;52.694;13.294;2023-04-24T00:55:14;11.00;48.20
18577;DHT22;9418;52.694;13.294;2023-04-24T00:57:41;11.00;47.10
18577;DHT22;9418;52.694;13.294;2023-04-24T01:00:08;11.10;46.20
18577;DHT22;9418;52.694;13.294;2023-04-24T01:02:39;11.10;46.00
18577;DHT22;9418;52.694;13.294;2023-04-24T01:05:09;11.00;45.30
18577;DHT22;9418;52.694;13.294;2023-04-24T01:07:37;11.10;44.40
18577;DHT22;9418;52.694;13.294;2023-04-24T01:10:05;11.10;44.00
18577;DHT22;9418;52.694;13.294;2023-04-24T01:12:33;11.10;42.40
18577;DHT22;9418;52.694;13.294;2023-04-24T01:14:59;11.10;42.10
18577;DHT22;9418;52.694;13.294;2023-04-24T01:17:26;11.10;44.00
18577;DHT22;9418;52.694;13.294;2023-04-24T01:19:54;11.10;43.50
18577;DHT22;9418;52.694;13.294;2023-04-24T01:22:23;11.20;43.20
18577;DHT22;9418;52.694;13.294;2023-04-24T01:24:50;11.20;43.60
18577;DHT22;9418;52.694;13.294;2023-04-24T01:27:16;11.20;45.50
18577;DHT22;9418;52.694;13.294;2023-04-24T01:29:43;11.30;46.00
18577;DHT22;9418;52.694;13.294;2023-04-24T01:32:10;11.30;47.40
18577;DHT22;9418;52.694;13.294;2023-04-24T01:34:37;11.30;47.70
18577;DHT22;9418;52.694;13.294;2023-04-24T01:37:04;11.30;52.20
18577;DHT22;9418;52.694;13.294;2023-04-24T01:39:32;11.40;52.80
18577;DHT22;9418;52.694;13.294;2023-04-24T01:41:59;11.40;51.50
18577;DHT22;9418;52.694;13.294;2023-04-24T01:44:27;11.40;23.00
18577;DHT22;9418;52.694;13.294;2023-04-24T01:46:54;11.10;92.30
18577;DHT22;9418;52.694;13.294;2023-04-24T01:49:22;10.90;99.90
18577;DHT22;9418;52.694;13.294;2023-04-24T01:51:48;10.80;99.90
18577;DHT22;9418;52.694;13.294;2023-04-24T01:54:15;10.70;99.90
18577;DHT22;9418;52.694;13.294;2023-04-24T01:56:43;10.60;99.90
18577;DHT22;9418;52.694;13.294;2023-04-24T01:59:10;10.60;99.90
18577;DHT22;9418;52.694;13.294;2023-04-24T02:01:38;10.50;99.90
18577;DHT22;9418;52.694;13.294;2023-04-24T02:04:05;10.50;99.90
18577;DHT22;9418;52.694;13.294;2023-04-24T02:06:32;10.50;99.90
18577;DHT22;9418;52.694;13.294;2023-04-24T02:08:59;10.40;99.90
18577;DHT22;9418;52.694;13.294;2023-04-24T02:11:25;10.40;99.90
18577;DHT22;9418;52.694;13.294;2023-04-24T02:13:54;10.40;99.90
18577;DHT22;9418;52.694;13.294;2023-04-24T02:16:20;10.40;99.90
18577;DHT22;9418;52.694;13.294;2023-04-24T02:18:47;10.40;99.90
18577;DHT22;9418;52.694;13.294;2023-04-24T02:21:13;10.40;99.90
18577;DHT22;9418;52.694;13.294;2023-04-24T02:23:40;10.40;99.90
18577;DHT22;9418;52.694;13.294;2023-04-24T02:26:07;10.40;99.90
18577;DHT22;9418;52.694;13.294;2023-04-24T02:28:33;10.40;99.90
18577;DHT22;9418;52.694;13.294;2023-04-24T02:31:01;10.40;99.90
18577;DHT22;9418;52.694;13.294;2023-04-24T02:33:28;10.30;99.90
18577;DHT22;9418;52.694;13.294;2023-04-24T02:35:54;10.30;99.90
18577;DHT22;9418;52.694;13.294;2023-04-24T02:38:21;10.30;99.90
18577;DHT22;9418;52.694;13.294;2023-04-24T02:40:47;10.30;99.90
18577;DHT22;9418;52.694;13.294;2023-04-24T02:43:14;10.30;99.90
18577;DHT22;9418;52.694;13.294;2023-04-24T02:45:40;10.30;99.90
18577;DHT22;9418;52.694;13.294;2023-04-24T02:48:08;10.30;99.90
18577;DHT22;9418;52.694;13.294;2023-04-24T02:50:35;10.30;99.90
18577;DHT22;9418;52.694;13.294;2023-04-24T02:53:01;10.30;99.90
18577;DHT22;9418;52.694;13.294;2023-04-24T02:55:28;10.30;99.90
18577;DHT22;9418;52.694;13.294;2023-04-24T02:57:55;10.30;99.90
18577;DHT22;9418;52.694;13.294;2023-04-24T03:00:22;10.30;99.90
18577;DHT22;9418;52.694;13.294;2023-04-24T03:02:49;10.30;99.90
18577;DHT22;9418;52.694;13.294;2023-04-24T03:05:17;10.30;99.90
18577;DHT22;9418;52.694;13.294;2023-04-24T03:07:43;10.30;99.90
18577;DHT22;9418;52.694;13.294;2023-04-24T03:10:11;10.30;99.90
18577;DHT22;9418;52.694;13.294;2023-04-24T03:12:37;10.30;99.90
18577;DHT22;9418;52.694;13.294;2023-04-24T03:15:04;10.30;99.90
18577;DHT22;9418;52.694;13.294;2023-04-24T03:17:31;10.40;99.90
18577;DHT22;9418;52.694;13.294;2023-04-24T03:19:58;10.40;99.90
18577;DHT22;9418;52.694;13.294;2023-04-24T03:22:25;10.40;99.90
18577;DHT22;9418;52.694;13.294;2023-04-24T03:24:52;10.50;99.90
18577;DHT22;9418;52.694;13.294;2023-04-24T03:27:20;10.40;99.90
18577;DHT22;9418;52.694;13.294;2023-04-24T03:29:46;10.40;99.90
18577;DHT22;9418;52.694;13.294;2023-04-24T03:32:13;10.40;99.90
18577;DHT22;9418;52.694;13.294;2023-04-24T03:34:39;10.50;99.90
18577;DHT22;9418;52.694;13.294;2023-04-24T03:37:06;10.50;99.90
18577;DHT22;9418;52.694;13.294;2023-04-24T03:39:34;10.50;99.90
18577;DHT22;9418;52.694;13.294;2023-04-24T03:42:01;10.60;99.90
18577;DHT22;9418;52.694;13.294;2023-04-24T03:44:27;10.50;99.90
18577;DHT22;9418;52.694;13.294;2023-04-24T03:46:54;10.60;99.90
18577;DHT22;9418;52.694;13.294;2023-04-24T03:49:20;10.70;99.90
18577;DHT22;9418;52.694;13.294;2023-04-24T03:51:47;10.60;99.90
18577;DHT22;9418;52.694;13.294;2023-04-24T03:54:14;10.60;99.90
18577;DHT22;9418;52.694;13.294;2023-04-24T03:56:41;10.70;99.90
18577;DHT22;9418;52.694;13.294;2023-04-24T03:59:08;10.70;99.90
18577;DHT22;9418;52.694;13.294;2023-04-24T04:01:35;10.80;99.90
18577;DHT22;9418;52.694;13.294;2023-04-24T04:04:02;10.80;99.90
18577;DHT22;9418;52.694;13.294;2023-04-24T04:06:29;10.80;99.90
18577;DHT22;9418;52.694;13.294;2023-04-24T04:08:57;10.80;99.90
18577;DHT22;9418;52.694;13.294;2023-04-24T04:11:23;10.80;99.90
18577;DHT22;9418;52.694;13.294;2023-04-24T04:13:51;10.70;99.90
18577;DHT22;9418;52.694;13.294;2023-04-24T04:16:18;10.80;99.90
18577;DHT22;9418;52.694;13.294;2023-04-24T04:18:44;10.70;99.90
18577;DHT22;9418;52.694;13.294;2023-04-24T04:21:11;10.70;99.90
18577;DHT22;9418;52.694;13.294;2023-04-24T04:23:38;10.80;99.90
18577;DHT22;9418;52.694;13.294;2023-04-24T04:26:05;10.70;99.90
18577;DHT22;9418;52.694;13.294;2023-04-24T04:28:33;10.80;99.90
18577;DHT22;9418;52.694;13.294;2023-04-24T04:31:01;10.80;99.90
18577;DHT22;9418;52.694;13.294;2023-04-24T04:33:28;10.80;99.90
18577;DHT22;9418;52.694;13.294;2023-04-24T04:35:54;10.80;99.90
18577;DHT22;9418;52.694;13.294;2023-04-24T04:38:22;10.80;99.90
18577;DHT22;9418;52.694;13.294;2023-04-24T04:40:48;10.80;99.90
18577;DHT22;9418;52.694;13.294;2023-04-24T04:43:15;10.80;99.90
18577;DHT22;9418;52.694;13.294;2023-04-24T04:45:42;10.70;99.90
18577;DHT22;9418;52.694;13.294;2023-04-24T04:48:11;10.70;99.90
18577;DHT22;9418;52.694;13.294;2023-04-24T04:50:39;10.70;99.90
18577;DHT22;9418;52.694;13.294;2023-04-24T04:53:05;10.70;99.90
18577;DHT22;9418;52.694;13.294;2023-04-24T04:55:32;10.70;99.90
18577;DHT22;9418;52.694;13.294;2023-04-24T04:57:58;10.70;99.90
18577;DHT22;9418;52.694;13.294;2023-04-24T05:00:26;10.80;99.90
18577;DHT22;9418;52.694;13.294;2023-04-24T05:02:54;10.80;99.90
18577;DHT22;9418;52.694;13.294;2023-04-24T05:05:22;10.80;99.90
18577;DHT22;9418;52.694;13.294;2023-04-24T05:07:48;10.90;99.90
18577;DHT22;9418;52.694;13.294;2023-04-24T05:10:15;10.90;99.90
18577;DHT22;9418;52.694;13.294;2023-04-24T05:12:41;10.90;99.90
18577;DHT22;9418;52.694;13.294;2023-04-24T05:15:08;10.90;99.90
18577;DHT22;9418;52.694;13.294;2023-04-24T05:17:35;11.00;99.90
18577;DHT22;9418;52.694;13.294;2023-04-24T05:20:01;11.00;99.90
18577;DHT22;9418;52.694;13.294;2023-04-24T05:22:32;11.10;99.90
18577;DHT22;9418;52.694;13.294;2023-04-24T05:24:58;11.10;99.90
18577;DHT22;9418;52.694;13.294;2023-04-24T05:27:25;11.10;99.90
18577;DHT22;9418;52.694;13.294;2023-04-24T05:29:51;11.20;99.90
18577;DHT22;9418;52.694;13.294;2023-04-24T05:32:18;11.20;99.90
18577;DHT22;9418;52.694;13.294;2023-04-24T05:34:44;11.30;99.90
18577;DHT22;9418;52.694;13.294;2023-04-24T05:37:11;11.30;99.90
18577;DHT22;9418;52.694;13.294;2023-04-24T05:39:39;11.30;99.90
18577;DHT22;9418;52.694;13.294;2023-04-24T05:42:07;11.30;99.90
18577;DHT22;9418;52.694;13.294;2023-04-24T05:44:33;11.30;99.90
18577;DHT22;9418;52.694;13.294;2023-04-24T05:47:00;11.40;99.90
18577;DHT22;9418;52.694;13.294;2023-04-24T05:49:27;11.40;99.90
18577;DHT22;9418;52.694;13.294;2023-04-24T05:51:53;11.50;99.90
18577;DHT22;9418;52.694;13.294;2023-04-24T05:54:20;11.50;99.90
18577;DHT22;9418;52.694;13.294;2023-04-24T05:56:49;11.60;99.90
18577;DHT22;9418;52.694;13.294;2023-04-24T05:59:15;11.60;99.90
18577;DHT22;9418;52.694;13.294;2023-04-24T06:01:42;11.70;99.90
18577;DHT22;9418;52.694;13.294;2023-04-24T06:04:08;11.80;99.90
18577;DHT22;9418;52.694;13.294;2023-04-24T06:06:35;11.90;99.90
18577;DHT22;9418;52.694;13.294;2023-04-24T06:09:02;12.00;99.90
18577;DHT22;9418;52.694;13.294;2023-04-24T06:11:29;12.10;99.90
18577;DHT22;9418;52.694;13.294;2023-04-24T06:13:57;12.20;99.90
18577;DHT22;9418;52.694;13.294;2023-04-24T06:16:23;12.30;99.90
18577;DHT22;9418;52.694;13.294;2023-04-24T06:18:50;12.40;99.90
18577;DHT22;9418;52.694;13.294;2023-04-24T06:21:16;12.60;99.50
18577;DHT22;9418;52.694;13.294;2023-04-24T06:23:43;12.60;41.40
18577;DHT22;9418;52.694;13.294;2023-04-24T06:26:11;12.90;45.90
18577;DHT22;9418;52.694;13.294;2023-04-24T06:28:38;13.10;49.80
18577;DHT22;9418;52.694;13.294;2023-04-24T06:31:06;13.10;73.70
18577;DHT22;9418;52.694;13.294;2023-04-24T06:33:32;13.30;70.80
18577;DHT22;9418;52.694;13.294;2023-04-24T06:35:59;13.40;80.20
18577;DHT22;9418;52.694;13.294;2023-04-24T06:38:26;13.50;99.90
18577;DHT22;9418;52.694;13.294;2023-04-24T06:40:52;13.60;99.90
18577;DHT22;9418;52.694;13.294;2023-04-24T06:43:19;14.00;99.90
18577;DHT22;9418;52.694;13.294;2023-04-24T06:45:45;14.30;99.90
18577;DHT22;9418;52.694;13.294;2023-04-24T06:48:13;14.50;99.90
18577;DHT22;9418;52.694;13.294;2023-04-24T06:50:40;14.80;99.90
18577;DHT22;9418;52.694;13.294;2023-04-24T06:53:07;14.80;92.80
18577;DHT22;9418;52.694;13.294;2023-04-24T06:55:33;14.70;35.90
18577;DHT22;9418;52.694;13.294;2023-04-24T06:58:01;14.50;51.30
18577;DHT22;9418;52.694;13.294;2023-04-24T07:00:28;14.40;99.90
18577;DHT22;9418;52.694;13.294;2023-04-24T07:02:55;14.20;99.90
18577;DHT22;9418;52.694;13.294;2023-04-24T07:05:24;14.10;21.90
18577;DHT22;9418;52.694;13.294;2023-04-24T07:07:50;14.30;99.90
18577;DHT22;9418;52.694;13.294;2023-04-24T07:10:17;14.60;22.70
18577;DHT22;9418;52.694;13.294;2023-04-24T07:12:45;14.60;31.20
18577;DHT22;9418;52.694;13.294;2023-04-24T07:15:12;14.40;38.90
18577;DHT22;9418;52.694;13.294;2023-04-24T07:17:39;14.20;59.60
18577;DHT22;9418;52.694;13.294;2023-04-24T07:20:09;14.10;44.60
18577;DHT22;9418;52.694;13.294;2023-04-24T07:22:38;14.10;39.80
18577;DHT22;9418;52.694;13.294;2023-04-24T07:25:05;14.10;40.90
18577;DHT22;9418;52.694;13.294;2023-04-24T07:27:32;14.20;99.90
18577;DHT22;9418;52.694;13.294;2023-04-24T07:29:59;14.50;32.60
18577;DHT22;9418;52.694;13.294;2023-04-24T07:32:26;14.70;35.80
18577;DHT22;9418;52.694;13.294;2023-04-24T07:34:52;14.70;68.90
18577;DHT22;9418;52.694;13.294;2023-04-24T07:37:19;14.70;89.80
18577;DHT22;9418;52.694;13.294;2023-04-24T07:39:48;14.80;91.80
18577;DHT22;9418;52.694;13.294;2023-04-24T07:42:14;15.00;99.90
18577;DHT22;9418;52.694;13.294;2023-04-24T07:44:41;15.40;99.90
18577;DHT22;9418;52.694;13.294;2023-04-24T07:47:08;15.60;1.40
18577;DHT22;9418;52.694;13.294;2023-04-24T07:49:35;15.70;99.90
18577;DHT22;9418;52.694;13.294;2023-04-24T07:52:01;15.80;99.90
18577;DHT22;9418;52.694;13.294;2023-04-24T07:54:28;15.90;99.90
18577;DHT22;9418;52.694;13.294;2023-04-24T07:56:56;16.10;99.90
18577;DHT22;9418;52.694;13.294;2023-04-24T07:59:22;16.30;40.80
18577;DHT22;9418;52.694;13.294;2023-04-24T08:01:49;16.40;35.10
18577;DHT22;9418;52.694;13.294;2023-04-24T08:04:16;16.50;40.70
18577;DHT22;9418;52.694;13.294;2023-04-24T08:06:43;16.80;56.80
18577;DHT22;9418;52.694;13.294;2023-04-24T08:09:10;16.80;99.90
18577;DHT22;9418;52.694;13.294;2023-04-24T08:11:37;16.70;88.50
18577;DHT22;9418;52.694;13.294;2023-04-24T08:14:05;16.60;99.90
18577;DHT22;9418;52.694;13.294;2023-04-24T08:16:32;16.50;99.90
18577;DHT22;9418;52.694;13.294;2023-04-24T08:18:59;16.70;99.90
18577;DHT22;9418;52.694;13.294;2023-04-24T08:21:25;16.90;99.90
18577;DHT22;9418;52.694;13.294;2023-04-24T08:23:52;16.80;99.90
18577;DHT22;9418;52.694;13.294;2023-04-24T08:26:19;16.90;99.90
18577;DHT22;9418;52.694;13.294;2023-04-24T08:28:45;16.60;99.90
18577;DHT22;9418;52.694;13.294;2023-04-24T08:31:13;16.80;99.90
18577;DHT22;9418;52.694;13.294;2023-04-24T08:33:40;16.60;99.90
18577;DHT22;9418;52.694;13.294;2023-04-24T08:36:07;16.60;99.90
18577;DHT22;9418;52.694;13.294;2023-04-24T08:38:33;16.90;99.90
18577;DHT22;9418;52.694;13.294;2023-04-24T08:41:01;16.90;99.90
18577;DHT22;9418;52.694;13.294;2023-04-24T08:43:28;16.80;99.90
18577;DHT22;9418;52.694;13.294;2023-04-24T08:45:56;16.40;99.90
18577;DHT22;9418;52.694;13.294;2023-04-24T08:48:24;16.40;99.90
18577;DHT22;9418;52.694;13.294;2023-04-24T08:50:51;16.40;99.90
18577;DHT22;9418;52.694;13.294;2023-04-24T08:53:18;16.50;99.90
18577;DHT22;9418;52.694;13.294;2023-04-24T08:55:47;16.60;99.90
18577;DHT22;9418;52.694;13.294;2023-04-24T08:58:16;16.80;99.90
18577;DHT22;9418;52.694;13.294;2023-04-24T09:00:43;16.90;99.90
18577;DHT22;9418;52.694;13.294;2023-04-24T09:03:13;16.90;99.90
18577;DHT22;9418;52.694;13.294;2023-04-24T09:05:42;16.90;99.90
18577;DHT22;9418;52.694;13.294;2023-04-24T09:08:11;17.30;99.90
18577;DHT22;9418;52.694;13.294;2023-04-24T09:10:39;17.50;1.40
18577;DHT22;9418;52.694;13.294;2023-04-24T09:13:06;17.30;99.90
18577;DHT22;9418;52.694;13.294;2023-04-24T09:15:34;17.20;99.90
18577;DHT22;9418;52.694;13.294;2023-04-24T09:18:01;17.00;99.90
18577;DHT22;9418;52.694;13.294;2023-04-24T09:20:28;16.90;99.90
18577;DHT22;9418;52.694;13.294;2023-04-24T09:22:56;16.80;99.90
18577;DHT22;9418;52.694;13.294;2023-04-24T09:25:25;16.80;99.90
18577;DHT22;9418;52.694;13.294;2023-04-24T09:28:00;16.60;99.90
18577;DHT22;9418;52.694;13.294;2023-04-24T09:30:27;16.40;99.90
18577;DHT22;9418;52.694;13.294;2023-04-24T09:33:12;16.70;99.90
18577;DHT22;9418;52.694;13.294;2023-04-24T09:35:40;16.90;99.90
18577;DHT22;9418;52.694;13.294;2023-04-24T09:38:09;16.90;99.90
18577;DHT22;9418;52.694;13.294;2023-04-24T09:40:36;16.80;99.90
18577;DHT22;9418;52.694;13.294;2023-04-24T09:43:02;16.60;99.90
18577;DHT22;9418;52.694;13.294;2023-04-24T09:45:35;16.50;99.90
18577;DHT22;9418;52.694;13.294;2023-04-24T09:48:02;16.50;99.90
18577;DHT22;9418;52.694;13.294;2023-04-24T09:50:30;16.40;99.90
18577;DHT22;9418;52.694;13.294;2023-04-24T09:52:59;16.10;99.90
18577;DHT22;9418;52.694;13.294;2023-04-24T09:55:28;16.00;99.90
18577;DHT22;9418;52.694;13.294;2023-04-24T09:57:57;15.90;99.90
18577;DHT22;9418;52.694;13.294;2023-04-24T10:00:24;15.80;99.90
18577;DHT22;9418;52.694;13.294;2023-04-24T10:02:58;15.70;99.90
18577;DHT22;9418;52.694;13.294;2023-04-24T10:05:27;15.60;99.90
18577;DHT22;9418;52.694;13.294;2023-04-24T10:08:00;15.50;99.90
18577;DHT22;9418;52.694;13.294;2023-04-24T10:10:29;15.50;99.90
18577;DHT22;9418;52.694;13.294;2023-04-24T10:12:55;15.50;99.90
18577;DHT22;9418;52.694;13.294;2023-04-24T10:15:22;15.50;99.90
18577;DHT22;9418;52.694;13.294;2023-04-24T10:17:49;15.70;99.90
18577;DHT22;9418;52.694;13.294;2023-04-24T10:20:19;15.80;99.90
18577;DHT22;9418;52.694;13.294;2023-04-24T10:22:48;15.80;99.90
18577;DHT22;9418;52.694;13.294;2023-04-24T10:25:19;15.80;99.90
18577;DHT22;9418;52.694;13.294;2023-04-24T10:27:49;15.80;99.90
18577;DHT22;9418;52.694;13.294;2023-04-24T10:30:16;15.80;99.90
18577;DHT22;9418;52.694;13.294;2023-04-24T10:32:43;15.90;99.90
18577;DHT22;9418;52.694;13.294;2023-04-24T10:35:12;16.00;99.90
18577;DHT22;9418;52.694;13.294;2023-04-24T10:37:42;16.00;99.90
18577;DHT22;9418;52.694;13.294;2023-04-24T10:40:10;16.10;99.90
18577;DHT22;9418;52.694;13.294;2023-04-24T10:42:40;16.00;99.90
18577;DHT22;9418;52.694;13.294;2023-04-24T10:45:16;15.90;99.90
18577;DHT22;9418;52.694;13.294;2023-04-24T10:47:42;15.80;99.90
18577;DHT22;9418;52.694;13.294;2023-04-24T10:50:10;15.80;99.90
18577;DHT22;9418;52.694;13.294;2023-04-24T10:52:47;15.80;99.90
18577;DHT22;9418;52.694;13.294;2023-04-24T10:55:14;15.90;99.90
18577;DHT22;9418;52.694;13.294;2023-04-24T10:58:01;16.00;99.90
18577;DHT22;9418;52.694;13.294;2023-04-24T11:00:29;16.30;99.90
18577;DHT22;9418;52.694;13.294;2023-04-24T11:02:56;16.60;99.90
18577;DHT22;9418;52.694;13.294;2023-04-24T11:05:49;16.70;99.90
18577;DHT22;9418;52.694;13.294;2023-04-24T11:08:22;16.80;99.90
18577;DHT22;9418;52.694;13.294;2023-04-24T11:10:56;17.00;99.90
18577;DHT22;9418;52.694;13.294;2023-04-24T11:13:23;17.00;99.90
18577;DHT22;9418;52.694;13.294;2023-04-24T11:19:02;17.40;99.90
18577;DHT22;9418;52.694;13.294;2023-04-24T11:21:31;17.30;99.90
18577;DHT22;9418;52.694;13.294;2023-04-24T11:23:58;17.20;99.90
18577;DHT22;9418;52.694;13.294;2023-04-24T11:26:25;17.20;99.90
18577;DHT22;9418;52.694;13.294;2023-04-24T11:29:06;17.00;99.90
18577;DHT22;9418;52.694;13.294;2023-04-24T11:31:40;16.80;99.90
18577;DHT22;9418;52.694;13.294;2023-04-24T11:34:09;16.80;99.90
18577;DHT22;9418;52.694;13.294;2023-04-24T11:36:37;16.70;99.90
18577;DHT22;9418;52.694;13.294;2023-04-24T11:39:05;16.70;99.90
18577;DHT22;9418;52.694;13.294;2023-04-24T11:41:31;16.60;99.90
18577;DHT22;9418;52.694;13.294;2023-04-24T11:43:58;17.20;99.90
18577;DHT22;9418;52.694;13.294;2023-04-24T11:46:29;17.50;99.90
18577;DHT22;9418;52.694;13.294;2023-04-24T11:48:57;18.20;99.90
18577;DHT22;9418;52.694;13.294;2023-04-24T11:51:27;17.90;99.90
18577;DHT22;9418;52.694;13.294;2023-04-24T11:53:54;18.10;99.90
18577;DHT22;9418;52.694;13.294;2023-04-24T11:56:21;18.00;99.90
18577;DHT22;9418;52.694;13.294;2023-04-24T11:58:48;18.20;99.90
18577;DHT22;9418;52.694;13.294;2023-04-24T12:01:14;18.20;99.90
18577;DHT22;9418;52.694;13.294;2023-04-24T12:03:41;18.20;99.90
18577;DHT22;9418;52.694;13.294;2023-04-24T12:06:11;18.30;99.90
18577;DHT22;9418;52.694;13.294;2023-04-24T12:08:40;18.10;99.90
18577;DHT22;9418;52.694;13.294;2023-04-24T12:11:07;17.80;99.90
18577;DHT22;9418;52.694;13.294;2023-04-24T12:13:34;17.70;99.90
18577;DHT22;9418;52.694;13.294;2023-04-24T12:16:02;17.80;99.90
18577;DHT22;9418;52.694;13.294;2023-04-24T12:18:29;17.60;99.90
18577;DHT22;9418;52.694;13.294;2023-04-24T12:21:14;17.40;99.90
18577;DHT22;9418;52.694;13.294;2023-04-24T12:23:44;17.30;99.90
18577;DHT22;9418;52.694;13.294;2023-04-24T12:26:11;17.00;1.40
18577;DHT22;9418;52.694;13.294;2023-04-24T12:28:38;16.90;99.90
18577;DHT22;9418;52.694;13.294;2023-04-24T12:31:06;16.80;99.90
18577;DHT22;9418;52.694;13.294;2023-04-24T12:33:33;16.70;99.90
18577;DHT22;9418;52.694;13.294;2023-04-24T12:36:01;16.70;99.90
18577;DHT22;9418;52.694;13.294;2023-04-24T12:38:28;16.70;99.90
18577;DHT22;9418;52.694;13.294;2023-04-24T12:41:04;16.70;99.90
18577;DHT22;9418;52.694;13.294;2023-04-24T12:43:31;16.60;99.90
18577;DHT22;9418;52.694;13.294;2023-04-24T12:45:58;16.80;99.90
18577;DHT22;9418;52.694;13.294;2023-04-24T12:48:25;16.60;99.90
18577;DHT22;9418;52.694;13.294;2023-04-24T12:50:51;17.00;1.40
18577;DHT22;9418;52.694;13.294;2023-04-24T12:53:18;18.00;99.90
18577;DHT22;9418;52.694;13.294;2023-04-24T12:55:45;19.00;99.90
18577;DHT22;9418;52.694;13.294;2023-04-24T12:58:13;19.00;99.90
18577;DHT22;9418;52.694;13.294;2023-04-24T13:00:40;18.40;99.90
18577;DHT22;9418;52.694;13.294;2023-04-24T13:03:08;17.90;99.90
18577;DHT22;9418;52.694;13.294;2023-04-24T13:05:35;17.50;99.90
18577;DHT22;9418;52.694;13.294;2023-04-24T13:08:01;17.10;99.90
18577;DHT22;9418;52.694;13.294;2023-04-24T13:10:28;17.20;99.90
18577;DHT22;9418;52.694;13.294;2023-04-24T13:12:55;17.70;99.90
18577;DHT22;9418;52.694;13.294;2023-04-24T13:15:23;17.50;99.90
18577;DHT22;9418;52.694;13.294;2023-04-24T13:17:50;17.90;99.90
18577;DHT22;9418;52.694;13.294;2023-04-24T13:20:17;17.50;99.90
18577;DHT22;9418;52.694;13.294;2023-04-24T13:22:44;16.90;99.90
18577;DHT22;9418;52.694;13.294;2023-04-24T13:25:10;16.60;99.90
18577;DHT22;9418;52.694;13.294;2023-04-24T13:27:38;16.50;99.90
18577;DHT22;9418;52.694;13.294;2023-04-24T13:30:06;16.70;99.90
18577;DHT22;9418;52.694;13.294;2023-04-24T13:32:34;16.70;99.90
18577;DHT22;9418;52.694;13.294;2023-04-24T13:35:02;17.40;99.90
18577;DHT22;9418;52.694;13.294;2023-04-24T13:37:28;17.90;99.90
18577;DHT22;9418;52.694;13.294;2023-04-24T13:39:55;19.00;99.90
18577;DHT22;9418;52.694;13.294;2023-04-24T13:42:21;19.20;99.90
18577;DHT22;9418;52.694;13.294;2023-04-24T13:44:48;18.70;99.90
18577;DHT22;9418;52.694;13.294;2023-04-24T13:47:16;19.00;99.90
18577;DHT22;9418;52.694;13.294;2023-04-24T13:49:44;19.10;99.90
18577;DHT22;9418;52.694;13.294;2023-04-24T13:52:10;19.50;99.90
18577;DHT22;9418;52.694;13.294;2023-04-24T13:54:37;20.20;99.90
18577;DHT22;9418;52.694;13.294;2023-04-24T13:57:04;19.30;99.90
18577;DHT22;9418;52.694;13.294;2023-04-24T13:59:30;19.20;99.90
18577;DHT22;9418;52.694;13.294;2023-04-24T14:01:57;19.70;99.90
18577;DHT22;9418;52.694;13.294;2023-04-24T14:04:23;19.20;99.90
18577;DHT22;9418;52.694;13.294;2023-04-24T14:06:52;18.80;99.90
18577;DHT22;9418;52.694;13.294;2023-04-24T14:09:18;18.00;99.90
18577;DHT22;9418;52.694;13.294;2023-04-24T14:11:45;17.60;99.90
18577;DHT22;9418;52.694;13.294;2023-04-24T14:14:11;17.40;99.90
18577;DHT22;9418;52.694;13.294;2023-04-24T14:16:38;17.40;99.90
18577;DHT22;9418;52.694;13.294;2023-04-24T14:19:04;18.00;99.90
18577;DHT22;9418;52.694;13.294;2023-04-24T14:21:32;18.30;99.90
18577;DHT22;9418;52.694;13.294;2023-04-24T14:24:00;18.20;99.90
18577;DHT22;9418;52.694;13.294;2023-04-24T14:26:26;17.90;99.90
18577;DHT22;9418;52.694;13.294;2023-04-24T14:28:53;18.20;99.90
18577;DHT22;9418;52.694;13.294;2023-04-24T14:31:20;18.70;99.90
18577;DHT22;9418;52.694;13.294;2023-04-24T14:33:46;19.70;99.90
18577;DHT22;9418;52.694;13.294;2023-04-24T14:36:13;19.50;99.90
18577;DHT22;9418;52.694;13.294;2023-04-24T14:38:40;19.40;99.90
18577;DHT22;9418;52.694;13.294;2023-04-24T14:41:08;19.10;99.90
18577;DHT22;9418;52.694;13.294;2023-04-24T14:43:37;18.70;99.90
18577;DHT22;9418;52.694;13.294;2023-04-24T14:46:03;19.10;99.90
18577;DHT22;9418;52.694;13.294;2023-04-24T14:48:30;19.80;99.90
18577;DHT22;9418;52.694;13.294;2023-04-24T14:50:57;20.10;99.90
18577;DHT22;9418;52.694;13.294;2023-04-24T14:53:23;19.80;99.90
18577;DHT22;9418;52.694;13.294;2023-04-24T14:55:50;19.50;99.90
18577;DHT22;9418;52.694;13.294;2023-04-24T14:58:18;19.30;99.90
18577;DHT22;9418;52.694;13.294;2023-04-24T15:00:45;19.30;99.90
18577;DHT22;9418;52.694;13.294;2023-04-24T15:03:12;18.90;99.90
18577;DHT22;9418;52.694;13.294;2023-04-24T15:05:38;17.60;99.90
18577;DHT22;9418;52.694;13.294;2023-04-24T15:08:05;17.60;99.90
18577;DHT22;9418;52.694;13.294;2023-04-24T15:10:31;17.50;99.90
18577;DHT22;9418;52.694;13.294;2023-04-24T15:12:58;18.20;99.90
18577;DHT22;9418;52.694;13.294;2023-04-24T15:15:26;17.70;99.90
18577;DHT22;9418;52.694;13.294;2023-04-24T15:17:52;17.90;99.90
18577;DHT22;9418;52.694;13.294;2023-04-24T15:20:19;18.70;99.90
18577;DHT22;9418;52.694;13.294;2023-04-24T15:22:46;19.40;99.90
18577;DHT22;9418;52.694;13.294;2023-04-24T15:25:12;19.20;99.90
18577;DHT22;9418;52.694;13.294;2023-04-24T15:27:40;19.00;99.90
18577;DHT22;9418;52.694;13.294;2023-04-24T15:30:08;19.50;99.90
18577;DHT22;9418;52.694;13.294;2023-04-24T15:32:36;19.00;99.90
18577;DHT22;9418;52.694;13.294;2023-04-24T15:35:04;18.20;99.90